createdAt,value
2018-02-01T00:02:14.456Z,108.97
2018-02-01T00:04:43.140Z,112.70
2018-02-01T00:07:11.826Z,89.10
2018-02-01T00:09:40.412Z,76.23
2018-02-01T00:12:09.140Z,138.00
2018-02-01T00:14:38.596Z,105.67
2018-02-01T00:17:07.226Z,52.97
2018-02-01T00:19:36.743Z,46.40
2018-02-01T00:22:06.190Z,52.90
2018-02-01T00:24:34.876Z,57.23
2018-02-01T00:27:03.821Z,54.27
2018-02-01T00:29:33.278Z,46.97
2018-02-01T00:32:01.964Z,42.70
2018-02-01T00:34:30.896Z,48.57
2018-02-01T00:37:00.367Z,39.60
2018-02-01T00:39:29.142Z,37.77
2018-02-01T00:41:58.102Z,38.20
2018-02-01T00:44:26.819Z,50.50
2018-02-01T00:46:55.506Z,53.63
2018-02-01T00:49:24.402Z,45.83
2018-02-01T00:51:53.023Z,53.47
2018-02-01T00:54:22.485Z,37.77
2018-02-01T00:56:51.459Z,48.07
2018-02-01T00:59:20.164Z,42.27
2018-02-01T01:01:48.849Z,45.73
2018-02-01T01:04:17.536Z,37.93
2018-02-01T01:06:46.221Z,31.37
2018-02-01T01:09:14.907Z,37.63
2018-02-01T01:11:43.902Z,41.83
2018-02-01T01:14:12.533Z,32.20
2018-02-01T01:16:41.888Z,35.63
2018-02-01T01:19:10.989Z,34.33
2018-02-01T01:21:39.607Z,28.43
2018-02-01T01:24:09.073Z,34.37
2018-02-01T01:26:37.858Z,34.50
2018-02-01T01:29:06.544Z,42.63
2018-02-01T01:31:35.132Z,34.47
2018-02-01T01:34:04.098Z,33.57
2018-02-01T01:36:32.810Z,36.40
2018-02-01T01:39:01.434Z,39.67
2018-02-01T01:41:30.900Z,30.10
2018-02-01T01:43:59.484Z,28.77
2018-02-01T01:46:28.112Z,32.90
2018-02-01T01:48:57.577Z,31.97
2018-02-01T01:51:26.252Z,33.67
2018-02-01T01:53:54.938Z,33.33
2018-02-01T01:56:23.734Z,42.87
2018-02-01T01:58:52.372Z,42.77
2018-02-01T02:01:21.818Z,36.23
2018-02-01T02:03:50.786Z,37.13
2018-02-01T02:06:19.498Z,37.40
2018-02-01T02:08:48.121Z,36.97
2018-02-01T02:11:17.588Z,32.47
2018-02-01T02:13:46.170Z,29.73
2018-02-01T02:16:14.799Z,27.40
2018-02-01T02:18:44.517Z,27.60
2018-02-01T02:21:13.247Z,24.87
2018-02-01T02:23:41.879Z,29.27
2018-02-01T02:26:11.395Z,30.83
2018-02-01T02:28:40.840Z,27.20
2018-02-01T02:31:09.428Z,28.73
2018-02-01T02:33:38.124Z,30.33
2018-02-01T02:36:06.899Z,34.20
2018-02-01T02:38:35.484Z,31.80
2018-02-01T02:41:04.177Z,31.83
2018-02-01T02:43:32.821Z,30.07
2018-02-01T02:46:01.544Z,28.73
2018-02-01T02:48:30.330Z,26.03
2018-02-01T02:50:59.014Z,25.90
2018-02-01T02:53:27.702Z,33.33
2018-02-01T02:55:56.495Z,24.60
2018-02-01T02:58:25.180Z,30.37
2018-02-01T03:00:53.872Z,26.10
2018-02-01T03:03:22.711Z,24.67
2018-02-01T03:05:51.436Z,24.17
2018-02-01T03:08:20.097Z,26.93
2018-02-01T03:10:49.064Z,34.23
2018-02-01T03:13:18.524Z,22.60
2018-02-01T03:15:47.146Z,26.90
2018-02-01T03:18:16.918Z,30.00
2018-02-01T03:20:45.560Z,38.57
2018-02-01T03:23:14.289Z,28.83
2018-02-01T03:25:43.020Z,30.63
2018-02-01T03:28:12.483Z,28.93
2018-02-01T03:30:41.103Z,24.30
2018-02-01T03:33:10.823Z,26.73
2018-02-01T03:35:40.274Z,30.43
2018-02-01T03:38:09.069Z,31.43
2018-02-01T03:40:37.802Z,22.20
2018-02-01T03:43:07.253Z,26.00
2018-02-01T03:45:35.887Z,27.73
2018-02-01T03:48:05.354Z,24.03
2018-02-01T03:50:34.018Z,22.40
2018-02-01T03:53:02.685Z,24.10
2018-02-01T03:55:31.604Z,25.40
2018-02-01T03:58:00.289Z,23.20
2018-02-01T04:00:28.942Z,23.33
2018-02-01T04:02:57.667Z,22.53
2018-02-01T04:05:26.348Z,26.47
2018-02-01T04:07:55.042Z,20.90
2018-02-01T04:10:24.136Z,20.10
2018-02-01T04:12:52.822Z,35.10
2018-02-01T04:15:21.502Z,38.27
2018-02-01T04:17:50.600Z,44.30
2018-02-01T04:20:19.285Z,39.93
2018-02-01T04:22:47.972Z,32.57
2018-02-01T04:25:16.865Z,44.13
2018-02-01T04:27:45.486Z,60.70
2018-02-01T04:30:14.846Z,52.57
2018-02-01T04:32:43.636Z,46.67
2018-02-01T04:35:13.087Z,51.00
2018-02-01T04:37:42.544Z,41.97
2018-02-01T04:40:11.475Z,37.73
2018-02-01T04:42:40.942Z,47.30
2018-02-01T04:45:09.682Z,33.93
2018-02-01T04:47:39.438Z,27.97
2018-02-01T04:50:08.125Z,74.97
2018-02-01T04:52:36.909Z,66.83
2018-02-01T04:55:05.603Z,104.30
2018-02-01T04:57:34.181Z,62.03
2018-02-01T05:00:02.966Z,64.67
2018-02-01T05:02:32.109Z,51.03
2018-02-01T05:05:01.567Z,39.10
2018-02-01T05:07:30.252Z,34.87
2018-02-01T05:09:59.238Z,47.87
2018-02-01T05:12:27.931Z,40.70
2018-02-01T05:14:56.573Z,47.73
2018-02-01T05:17:25.303Z,58.83
2018-02-01T05:19:53.933Z,37.23
2018-02-01T05:22:23.399Z,40.63
2018-02-01T05:24:52.184Z,35.80
2018-02-01T05:27:20.870Z,51.63
2018-02-01T05:29:49.555Z,23.27
2018-02-01T05:32:18.450Z,24.77
2018-02-01T05:34:47.135Z,36.63
2018-02-01T05:37:15.756Z,28.90
2018-02-01T05:39:45.225Z,22.30
2018-02-01T05:42:13.967Z,33.83
2018-02-01T05:44:42.635Z,59.13
2018-02-01T05:47:12.153Z,57.27
2018-02-01T05:49:41.500Z,66.93
2018-02-01T05:52:10.052Z,78.23
2018-02-01T05:54:38.970Z,101.07
2018-02-01T05:57:07.624Z,115.13
2018-02-01T05:59:36.292Z,85.37
2018-02-01T06:02:05.949Z,100.63
2018-02-01T06:04:34.601Z,125.50
2018-02-01T06:07:03.322Z,123.43
2018-02-01T06:09:32.116Z,140.87
2018-02-01T06:12:00.805Z,127.20
2018-02-01T06:14:29.494Z,89.97
2018-02-01T06:16:58.340Z,59.83
2018-02-01T06:19:26.960Z,60.53
2018-02-01T06:21:55.743Z,65.80
2018-02-01T06:24:24.593Z,66.23
2018-02-01T06:26:53.323Z,85.87
2018-02-01T06:29:22.009Z,155.50
2018-02-01T06:31:50.971Z,64.03
2018-02-01T06:34:19.688Z,60.40
2018-02-01T06:36:48.406Z,82.70
2018-02-01T06:39:17.975Z,65.17
2018-02-01T06:41:46.666Z,73.83
2018-02-01T06:44:15.353Z,68.83
2018-02-01T06:46:43.954Z,70.67
2018-02-01T06:49:12.527Z,55.37
2018-02-01T06:51:41.098Z,95.83
2018-02-01T06:54:09.808Z,114.70
2018-02-01T06:56:38.685Z,107.73
2018-02-01T06:59:07.370Z,80.53
2018-02-01T07:01:40.247Z,98.53
2018-02-01T07:04:09.349Z,69.00
2018-02-01T07:06:37.991Z,71.77
2018-02-01T07:09:06.720Z,63.63
2018-02-01T07:11:35.303Z,52.40
2018-02-01T07:14:03.885Z,45.97
2018-02-01T07:16:32.816Z,84.27
2018-02-01T07:19:02.277Z,45.97
2018-02-01T07:21:30.836Z,38.80
2018-02-01T07:24:00.054Z,44.63
2018-02-01T07:26:28.733Z,47.13
2018-02-01T07:28:57.326Z,48.93
2018-02-01T07:31:26.019Z,52.10
2018-02-01T07:33:54.691Z,48.50
2018-02-01T07:36:23.383Z,60.93
2018-02-01T07:38:53.260Z,53.90
2018-02-01T07:41:22.719Z,51.27
2018-02-01T07:43:51.441Z,35.93
2018-02-01T07:46:20.228Z,57.67
2018-02-01T07:48:49.026Z,34.83
2018-02-01T07:51:17.708Z,43.90
2018-02-01T07:53:46.458Z,30.67
2018-02-01T07:56:15.179Z,30.30
2018-02-01T07:58:43.843Z,27.67
2018-02-01T08:01:12.811Z,29.83
2018-02-01T08:03:41.544Z,27.57
2018-02-01T08:06:10.132Z,26.83
2018-02-01T08:08:38.864Z,26.07
2018-02-01T08:11:08.323Z,31.43
2018-02-01T08:13:36.899Z,63.40
2018-02-01T08:16:05.842Z,34.53
2018-02-01T08:18:35.302Z,31.73
2018-02-01T08:21:04.094Z,32.63
2018-02-01T08:23:33.694Z,28.03
2018-02-01T08:26:02.381Z,26.40
2018-02-01T08:28:30.960Z,22.47
2018-02-01T08:30:59.608Z,29.57
2018-02-01T08:33:28.189Z,28.57
2018-02-01T08:35:56.741Z,28.43
2018-02-01T08:38:25.344Z,25.27
2018-02-01T08:40:54.702Z,32.33
2018-02-01T08:43:23.284Z,21.67
2018-02-01T08:45:52.063Z,23.03
2018-02-01T08:48:20.624Z,21.37
2018-02-01T08:50:49.179Z,23.73
2018-02-01T08:53:18.640Z,21.10
2018-02-01T08:55:47.189Z,22.60
2018-02-01T08:58:15.789Z,27.97
2018-02-01T09:00:44.406Z,27.40
2018-02-01T09:03:13.179Z,27.37
2018-02-01T09:05:41.865Z,27.40
2018-02-01T09:08:10.858Z,23.17
2018-02-01T09:10:39.408Z,20.67
2018-02-01T09:13:07.972Z,28.07
2018-02-01T09:15:37.627Z,17.10
2018-02-01T09:18:06.185Z,20.43
2018-02-01T09:20:34.739Z,23.53
2018-02-01T09:23:04.147Z,24.00
2018-02-01T09:25:32.728Z,29.27
2018-02-01T09:28:01.280Z,20.97
2018-02-01T09:30:30.196Z,19.87
2018-02-01T09:32:59.524Z,21.23
2018-02-01T09:35:28.085Z,22.20
2018-02-01T09:37:57.644Z,26.63
2018-02-01T09:40:26.206Z,22.83
2018-02-01T09:42:54.763Z,35.00
2018-02-01T09:45:23.491Z,22.60
2018-02-01T09:47:52.056Z,52.60
2018-02-01T09:50:20.622Z,23.10
2018-02-01T09:52:49.241Z,32.80
2018-02-01T09:55:18.618Z,21.10
2018-02-01T09:57:47.224Z,22.40
2018-02-01T10:00:16.020Z,22.03
2018-02-01T10:02:44.580Z,18.33
2018-02-01T10:05:13.144Z,20.50
2018-02-01T10:07:42.512Z,19.13
2018-02-01T10:10:11.070Z,27.00
2018-02-01T10:12:39.629Z,21.80
2018-02-01T10:15:08.547Z,23.87
2018-02-01T10:17:37.146Z,25.93
2018-02-01T10:20:05.704Z,24.97
2018-02-01T10:22:34.400Z,22.43
2018-02-01T10:25:02.975Z,23.57
2018-02-01T10:27:31.525Z,25.43
2018-02-01T10:30:00.452Z,20.03
2018-02-01T10:32:29.061Z,23.70
2018-02-01T10:34:58.388Z,20.80
2018-02-01T10:37:26.995Z,26.83
2018-02-01T10:39:55.555Z,24.40
2018-02-01T10:42:24.936Z,26.40
2018-02-01T10:44:54.507Z,51.73
2018-02-01T10:47:23.082Z,24.73
2018-02-01T10:49:51.651Z,24.83
2018-02-01T10:52:20.470Z,25.00
2018-02-01T10:54:49.048Z,27.23
2018-02-01T10:57:18.368Z,29.50
2018-02-01T10:59:46.977Z,25.07
2018-02-01T11:02:16.381Z,30.90
2018-02-01T11:04:45.703Z,26.03
2018-02-01T11:07:14.318Z,42.13
2018-02-01T11:09:42.880Z,30.47
2018-02-01T11:12:11.443Z,28.70
2018-02-01T11:14:40.080Z,25.30
2018-02-01T11:17:08.648Z,27.73
2018-02-01T11:19:37.296Z,27.60
2018-02-01T11:22:05.996Z,32.10
2018-02-01T11:24:34.560Z,33.37
2018-02-01T11:27:03.115Z,27.13
2018-02-01T11:29:31.720Z,34.23
2018-02-01T11:32:01.041Z,38.10
2018-02-01T11:34:30.371Z,57.80
2018-02-01T11:36:58.999Z,33.27
2018-02-01T11:39:28.320Z,47.67
2018-02-01T11:41:56.882Z,40.43
2018-02-01T11:44:26.453Z,38.90
2018-02-01T11:46:55.028Z,31.70
2018-02-01T11:49:23.602Z,28.47
2018-02-01T11:51:52.200Z,29.73
2018-02-01T11:54:20.760Z,29.30
2018-02-01T11:56:49.320Z,27.00
2018-02-01T11:59:17.948Z,36.03
2018-02-01T12:01:46.540Z,28.57
2018-02-01T12:04:16.676Z,27.90
2018-02-01T12:06:45.535Z,26.97
2018-02-01T12:09:14.093Z,79.80
2018-02-01T12:11:42.669Z,31.50
2018-02-01T12:14:11.497Z,77.90
2018-02-01T12:16:40.054Z,34.40
2018-02-01T12:19:08.621Z,28.67
2018-02-01T12:21:37.241Z,28.50
2018-02-01T12:24:05.801Z,24.70
2018-02-01T12:26:34.375Z,35.17
2018-02-01T12:29:02.998Z,30.97
2018-02-01T12:31:31.591Z,31.57
2018-02-01T12:34:00.157Z,23.20
2018-02-01T12:36:28.764Z,25.87
2018-02-01T12:38:57.324Z,43.00
2018-02-01T12:41:25.876Z,81.37
2018-02-01T12:43:54.912Z,31.00
2018-02-01T12:46:23.531Z,36.53
2018-02-01T12:48:52.855Z,34.03
2018-02-01T12:51:21.678Z,29.00
2018-02-01T12:53:50.232Z,32.47
2018-02-01T12:56:18.793Z,27.47
2018-02-01T12:58:48.352Z,37.10
2018-02-01T13:01:16.917Z,40.43
2018-02-01T13:03:45.488Z,55.40
2018-02-01T13:06:14.305Z,30.30
2018-02-01T13:08:42.872Z,28.50
2018-02-01T13:11:11.440Z,27.53
2018-02-01T13:13:40.158Z,25.17
2018-02-01T13:16:08.717Z,25.13
2018-02-01T13:18:37.276Z,22.70
2018-02-01T13:21:05.895Z,23.90
2018-02-01T13:23:34.449Z,24.67
2018-02-01T13:26:03.004Z,26.13
2018-02-01T13:28:32.376Z,24.87
2018-02-01T13:31:00.966Z,25.07
2018-02-01T13:33:29.545Z,33.37
2018-02-01T13:35:58.431Z,25.70
2018-02-01T13:38:27.756Z,21.83
2018-02-01T13:40:56.316Z,25.50
2018-02-01T13:43:25.097Z,26.97
2018-02-01T13:45:53.672Z,39.33
2018-02-01T13:48:22.230Z,27.60
2018-02-01T13:50:50.832Z,30.50
2018-02-01T13:53:19.400Z,29.53
2018-02-01T13:55:47.959Z,31.03
2018-02-01T13:58:17.332Z,42.83
2018-02-01T14:00:45.906Z,30.63
2018-02-01T14:03:14.472Z,111.03
2018-02-01T14:05:43.367Z,33.43
2018-02-01T14:08:11.953Z,33.20
2018-02-01T14:10:40.505Z,44.63
2018-02-01T14:13:09.129Z,44.80
2018-02-01T14:15:37.688Z,30.97
2018-02-01T14:18:06.253Z,44.33
2018-02-01T14:20:34.884Z,28.70
2018-02-01T14:23:03.448Z,30.13
2018-02-01T14:25:32.036Z,41.27
2018-02-01T14:28:01.069Z,31.30
2018-02-01T14:30:30.405Z,48.17
2018-02-01T14:32:58.964Z,88.33
2018-02-01T14:35:28.725Z,43.60
2018-02-01T14:37:57.282Z,37.83
2018-02-01T14:40:25.847Z,34.63
2018-02-01T14:42:54.464Z,38.87
2018-02-01T14:45:23.024Z,69.63
2018-02-01T14:47:51.585Z,51.47
2018-02-01T14:50:20.959Z,59.83
2018-02-01T14:52:49.533Z,66.77
2018-02-01T14:55:18.084Z,95.13
2018-02-01T14:57:47.006Z,78.43
2018-02-01T15:00:15.581Z,73.80
2018-02-01T15:02:44.158Z,291.50
2018-02-01T15:05:13.165Z,186.87
2018-02-01T15:07:41.738Z,68.43
2018-02-01T15:10:10.296Z,72.63
2018-02-01T15:12:38.930Z,78.67
2018-02-01T15:15:07.493Z,72.27
2018-02-01T15:17:36.052Z,63.83
2018-02-01T15:20:04.661Z,71.10
2018-02-01T15:22:33.212Z,94.20
2018-02-01T15:25:01.782Z,115.83
2018-02-01T15:27:31.151Z,112.13
2018-02-01T15:29:59.712Z,119.00
2018-02-01T15:32:28.272Z,124.97
2018-02-01T15:34:56.882Z,180.93
2018-02-01T15:37:25.450Z,221.73
2018-02-01T15:39:54.776Z,178.27
2018-02-01T15:42:23.557Z,238.23
2018-02-01T15:44:52.121Z,230.10
2018-02-01T15:47:20.684Z,186.30
2018-02-01T15:49:49.614Z,214.57
2018-02-01T15:52:18.184Z,203.97
2018-02-01T15:54:46.751Z,251.53
2018-02-01T15:57:15.569Z,277.30
2018-02-01T15:59:44.123Z,221.50
2018-02-01T16:02:12.707Z,240.57
2018-02-01T16:04:41.641Z,258.50
2018-02-01T16:07:10.206Z,245.67
2018-02-01T16:09:38.773Z,276.13
2018-02-01T16:12:07.377Z,306.33
2018-02-01T16:14:35.949Z,330.77
2018-02-01T16:17:05.273Z,334.10
2018-02-01T16:19:34.228Z,453.37
2018-02-01T16:22:02.877Z,458.70
2018-02-01T16:24:31.485Z,501.20
2018-02-01T16:27:00.294Z,448.77
2018-02-01T16:29:28.897Z,535.50
2018-02-01T16:31:57.467Z,510.07
2018-02-01T16:34:28.709Z,457.50
2018-02-01T16:36:57.306Z,419.87
2018-02-01T16:39:25.879Z,439.50
2018-02-01T16:41:54.875Z,499.37
2018-02-01T16:44:23.428Z,540.63
2018-02-01T16:46:51.988Z,608.73
2018-02-01T16:49:20.826Z,626.77
2018-02-01T16:51:49.392Z,633.13
2018-02-01T16:54:17.951Z,690.73
2018-02-01T16:56:46.556Z,695.90
2018-02-01T16:59:15.111Z,682.27
2018-02-01T17:01:43.669Z,516.53
2018-02-01T17:04:12.281Z,540.33
2018-02-01T17:06:40.833Z,531.77
2018-02-01T17:09:10.324Z,641.90
2018-02-01T17:11:39.790Z,580.10
2018-02-01T17:14:08.370Z,596.90
2018-02-01T17:16:36.925Z,597.43
2018-02-01T17:19:05.533Z,617.23
2018-02-01T17:21:34.084Z,500.13
2018-02-01T17:24:02.642Z,417.13
2018-02-01T17:26:32.206Z,401.40
2018-02-01T17:29:00.750Z,470.03
2018-02-01T17:31:29.308Z,390.47
2018-02-01T17:33:58.832Z,245.33
2018-02-01T17:36:27.393Z,231.53
2018-02-01T17:38:55.940Z,205.43
2018-02-01T17:41:24.544Z,199.17
2018-02-01T17:43:53.104Z,223.30
2018-02-01T17:46:21.654Z,178.67
2018-02-01T17:48:50.253Z,185.83
2018-02-01T17:51:18.810Z,243.43
2018-02-01T17:53:47.496Z,276.27
2018-02-01T17:56:16.124Z,303.87
2018-02-01T17:58:44.685Z,355.43
2018-02-01T18:01:14.013Z,190.70
2018-02-01T18:03:42.708Z,161.67
2018-02-01T18:06:11.256Z,166.93
2018-02-01T18:08:39.805Z,200.40
2018-02-01T18:11:09.260Z,153.90
2018-02-01T18:13:37.813Z,151.77
2018-02-01T18:16:06.376Z,154.47
2018-02-01T18:18:36.182Z,176.27
2018-02-01T18:21:04.748Z,141.77
2018-02-01T18:23:33.689Z,104.97
2018-02-01T18:26:02.499Z,152.83
2018-02-01T18:28:31.049Z,63.10
2018-02-01T18:30:59.628Z,69.00
2018-02-01T18:33:28.452Z,63.20
2018-02-01T18:35:56.997Z,67.30
2018-02-01T18:38:25.550Z,53.00
2018-02-01T18:40:54.142Z,74.20
2018-02-01T18:43:22.684Z,131.23
2018-02-01T18:45:51.240Z,162.33
2018-02-01T18:48:19.844Z,210.93
2018-02-01T18:50:48.409Z,237.73
2018-02-01T18:53:16.985Z,200.47
2018-02-01T18:55:45.811Z,165.13
2018-02-01T18:58:14.364Z,134.57
2018-02-01T19:00:42.953Z,128.80
2018-02-01T19:03:11.565Z,111.17
2018-02-01T19:05:40.124Z,109.67
2018-02-01T19:08:08.689Z,127.33
2018-02-01T19:10:37.284Z,109.83
2018-02-01T19:13:05.848Z,101.87
2018-02-01T19:15:35.235Z,109.97
2018-02-01T19:18:04.744Z,108.60
2018-02-01T19:20:34.072Z,152.80
2018-02-01T19:23:02.619Z,140.57
2018-02-01T19:25:31.987Z,143.93
2018-02-01T19:28:01.521Z,166.97
2018-02-01T19:30:30.920Z,167.47
2018-02-01T19:32:59.524Z,146.13
2018-02-01T19:35:28.858Z,121.80
2018-02-01T19:37:57.465Z,93.47
2018-02-01T19:40:26.168Z,114.77
2018-02-01T19:42:54.737Z,106.30
2018-02-01T19:45:23.293Z,101.57
2018-02-01T19:47:52.315Z,110.57
2018-02-01T19:50:20.868Z,105.23
2018-02-01T19:52:49.426Z,71.40
2018-02-01T19:55:18.787Z,63.33
2018-02-01T19:57:47.809Z,62.83
2018-02-01T20:00:17.137Z,69.77
2018-02-01T20:02:45.736Z,72.70
2018-02-01T20:05:14.283Z,62.00
2018-02-01T20:07:42.848Z,74.63
2018-02-01T20:10:12.600Z,73.97
2018-02-01T20:12:41.146Z,81.40
2018-02-01T20:15:10.464Z,119.50
2018-02-01T20:17:39.117Z,171.00
2018-02-01T20:20:08.506Z,161.43
2018-02-01T20:22:37.079Z,202.57
2018-02-01T20:25:05.960Z,123.57
2018-02-01T20:27:34.520Z,186.40
2018-02-01T20:30:03.098Z,170.87
2018-02-01T20:32:31.907Z,183.63
2018-02-01T20:35:00.456Z,205.67
2018-02-01T20:37:29.000Z,76.83
2018-02-01T20:39:57.949Z,65.97
2018-02-01T20:42:26.496Z,74.13
2018-02-01T20:44:55.816Z,78.83
2018-02-01T20:47:24.412Z,86.53
2018-02-01T20:49:53.041Z,69.17
2018-02-01T20:52:21.616Z,70.13
2018-02-01T20:54:50.583Z,74.83
2018-02-01T20:57:19.196Z,206.63
2018-02-01T20:59:47.836Z,106.27
2018-02-01T21:02:16.548Z,101.10
2018-02-01T21:04:45.097Z,136.90
2018-02-01T21:07:13.704Z,117.93
2018-02-01T21:09:42.306Z,107.63
2018-02-01T21:12:10.885Z,121.40
2018-02-01T21:14:39.493Z,142.67
2018-02-01T21:17:08.356Z,110.37
2018-02-01T21:19:36.924Z,125.80
2018-02-01T21:22:05.508Z,178.90
2018-02-01T21:24:34.388Z,65.97
2018-02-01T21:27:03.044Z,47.60
2018-02-01T21:29:32.498Z,29.40
2018-02-01T21:32:01.205Z,27.97
2018-02-01T21:34:29.759Z,25.97
2018-02-01T21:36:58.309Z,26.87
2018-02-01T21:39:27.856Z,26.70
2018-02-01T21:41:56.408Z,27.77
2018-02-01T21:44:24.968Z,319.03
2018-02-01T21:46:54.364Z,86.13
2018-02-01T21:49:23.828Z,129.77
2018-02-01T21:51:53.179Z,146.00
2018-02-01T21:54:22.948Z,122.13
2018-02-01T21:56:51.512Z,220.93
2018-02-01T21:59:20.069Z,137.93
2018-02-01T22:01:48.664Z,116.10
2018-02-01T22:04:17.221Z,119.67
2018-02-01T22:06:46.844Z,149.90
2018-02-01T22:09:15.673Z,97.60
2018-02-01T22:11:44.224Z,73.80
2018-02-01T22:14:12.787Z,314.90
2018-02-01T22:16:42.152Z,144.90
2018-02-01T22:19:10.700Z,91.80
2018-02-01T22:21:39.252Z,81.73
2018-02-01T22:24:08.829Z,97.53
2018-02-01T22:26:37.396Z,123.83
2018-02-01T22:29:05.945Z,98.20
2018-02-01T22:31:34.549Z,99.93
2018-02-01T22:34:03.100Z,100.33
2018-02-01T22:36:32.412Z,129.63
2018-02-01T22:39:01.438Z,146.00
2018-02-01T22:41:29.988Z,219.63
2018-02-01T22:43:58.542Z,251.43
2018-02-01T22:46:27.947Z,299.67
2018-02-01T22:48:57.272Z,153.67
2018-02-01T22:51:25.824Z,108.60
2018-02-01T22:53:55.298Z,94.00
2018-02-01T22:56:23.864Z,81.20
2018-02-01T22:58:52.421Z,102.83
2018-02-01T23:01:21.049Z,153.47
2018-02-01T23:03:49.624Z,139.90
2018-02-01T23:06:18.180Z,122.90
2018-02-01T23:08:46.794Z,105.10
2018-02-01T23:11:16.168Z,91.50
2018-02-01T23:13:44.737Z,75.40
2018-02-01T23:16:14.097Z,80.77
2018-02-01T23:18:42.653Z,65.63
2018-02-01T23:21:11.204Z,51.37
2018-02-01T23:23:40.032Z,43.77
2018-02-01T23:26:08.582Z,38.80
2018-02-01T23:28:37.148Z,40.20
2018-02-01T23:31:06.806Z,42.50
2018-02-01T23:33:35.356Z,40.40
2018-02-01T23:36:03.903Z,36.77
2018-02-01T23:38:32.760Z,34.70
2018-02-01T23:41:01.304Z,37.20
2018-02-01T23:43:29.847Z,38.03
2018-02-01T23:45:58.528Z,31.93
2018-02-01T23:48:27.835Z,36.73
2018-02-01T23:50:56.393Z,37.83
2018-02-01T23:53:25.000Z,30.13
2018-02-01T23:55:53.561Z,31.93
2018-02-01T23:58:22.881Z,30.13
